sensor_id;sensor_type;location;lat;lon;timestamp;pressure;altitude;pressure_sealevel;temperature;humidity
50710;BME280;37033;49.994;21.992;2023-01-29T00:02:12;100054.21;;;-1.67;88.86
50710;BME280;37033;49.994;21.992;2023-01-29T00:05:02;100060.48;;;-1.68;88.86
50710;BME280;37033;49.994;21.992;2023-01-29T00:07:53;100060.26;;;-1.69;88.93
50710;BME280;37033;49.994;21.992;2023-01-29T00:10:43;100063.38;;;-1.70;88.87
50710;BME280;37033;49.994;21.992;2023-01-29T00:13:33;100069.02;;;-1.71;88.72
50710;BME280;37033;49.994;21.992;2023-01-29T00:16:23;100070.64;;;-1.72;88.74
50710;BME280;37033;49.994;21.992;2023-01-29T00:19:13;100073.38;;;-1.74;88.70
50710;BME280;37033;49.994;21.992;2023-01-29T00:22:02;100074.81;;;-1.76;88.69
50710;BME280;37033;49.994;21.992;2023-01-29T00:24:52;100074.36;;;-1.77;88.74
50710;BME280;37033;49.994;21.992;2023-01-29T00:27:42;100074.02;;;-1.78;88.82
50710;BME280;37033;49.994;21.992;2023-01-29T00:30:32;100074.61;;;-1.79;88.85
50710;BME280;37033;49.994;21.992;2023-01-29T00:33:22;100073.23;;;-1.79;88.69
50710;BME280;37033;49.994;21.992;2023-01-29T00:36:13;100071.70;;;-1.80;88.74
50710;BME280;37033;49.994;21.992;2023-01-29T00:39:02;100075.98;;;-1.80;88.68
50710;BME280;37033;49.994;21.992;2023-01-29T00:41:57;100078.23;;;-1.79;88.70
50710;BME280;37033;49.994;21.992;2023-01-29T00:45:07;100077.36;;;-1.79;88.61
50710;BME280;37033;49.994;21.992;2023-01-29T00:47:57;100070.23;;;-1.79;88.31
50710;BME280;37033;49.994;21.992;2023-01-29T00:50:47;100079.21;;;-1.78;88.11
50710;BME280;37033;49.994;21.992;2023-01-29T00:53:37;100083.34;;;-1.76;87.93
50710;BME280;37033;49.994;21.992;2023-01-29T00:56:26;100085.94;;;-1.76;87.69
50710;BME280;37033;49.994;21.992;2023-01-29T00:59:17;100082.55;;;-1.76;87.63
50710;BME280;37033;49.994;21.992;2023-01-29T01:02:07;100082.02;;;-1.76;87.54
50710;BME280;37033;49.994;21.992;2023-01-29T01:05:16;100078.66;;;-1.76;87.54
50710;BME280;37033;49.994;21.992;2023-01-29T01:08:06;100076.95;;;-1.76;87.43
50710;BME280;37033;49.994;21.992;2023-01-29T01:11:17;100072.69;;;-1.76;87.50
50710;BME280;37033;49.994;21.992;2023-01-29T01:14:06;100071.73;;;-1.78;87.46
50710;BME280;37033;49.994;21.992;2023-01-29T01:16:56;100070.02;;;-1.79;87.45
50710;BME280;37033;49.994;21.992;2023-01-29T01:19:46;100074.40;;;-1.80;87.53
50710;BME280;37033;49.994;21.992;2023-01-29T01:22:35;100069.50;;;-1.81;87.42
50710;BME280;37033;49.994;21.992;2023-01-29T01:25:26;100070.23;;;-1.81;87.54
50710;BME280;37033;49.994;21.992;2023-01-29T01:28:16;100076.48;;;-1.81;87.51
50710;BME280;37033;49.994;21.992;2023-01-29T01:31:10;100080.69;;;-1.81;87.46
50710;BME280;37033;49.994;21.992;2023-01-29T01:34:01;100077.41;;;-1.80;87.55
50710;BME280;37033;49.994;21.992;2023-01-29T01:36:50;100081.41;;;-1.79;87.57
50710;BME280;37033;49.994;21.992;2023-01-29T01:39:40;100083.29;;;-1.80;87.56
50710;BME280;37033;49.994;21.992;2023-01-29T01:42:30;100080.36;;;-1.81;87.55
50710;BME280;37033;49.994;21.992;2023-01-29T01:45:22;100077.61;;;-1.82;87.61
50710;BME280;37033;49.994;21.992;2023-01-29T01:48:15;100075.77;;;-1.83;87.73
50710;BME280;37033;49.994;21.992;2023-01-29T01:51:07;100077.69;;;-1.83;87.72
50710;BME280;37033;49.994;21.992;2023-01-29T01:54:01;100077.73;;;-1.84;87.65
50710;BME280;37033;49.994;21.992;2023-01-29T01:56:54;100081.17;;;-1.82;87.67
50710;BME280;37033;49.994;21.992;2023-01-29T01:59:55;100080.94;;;-1.82;87.77
50710;BME280;37033;49.994;21.992;2023-01-29T02:02:47;100077.70;;;-1.81;87.74
50710;BME280;37033;49.994;21.992;2023-01-29T02:05:56;100081.70;;;-1.82;87.81
50710;BME280;37033;49.994;21.992;2023-01-29T02:09:07;100080.81;;;-1.82;87.87
50710;BME280;37033;49.994;21.992;2023-01-29T02:12:17;100082.59;;;-1.80;87.89
50710;BME280;37033;49.994;21.992;2023-01-29T02:15:10;100082.06;;;-1.80;87.81
50710;BME280;37033;49.994;21.992;2023-01-29T02:18:00;100080.54;;;-1.79;87.87
50710;BME280;37033;49.994;21.992;2023-01-29T02:21:06;100075.66;;;-1.78;87.82
50710;BME280;37033;49.994;21.992;2023-01-29T02:24:25;100080.29;;;-1.78;87.88
50710;BME280;37033;49.994;21.992;2023-01-29T02:27:23;100078.60;;;-1.77;87.77
50710;BME280;37033;49.994;21.992;2023-01-29T02:30:25;100071.70;;;-1.75;87.81
50710;BME280;37033;49.994;21.992;2023-01-29T02:33:18;100057.86;;;-1.76;87.86
50710;BME280;37033;49.994;21.992;2023-01-29T02:36:17;100049.95;;;-1.75;87.97
50710;BME280;37033;49.994;21.992;2023-01-29T02:39:15;100047.25;;;-1.72;87.95
50710;BME280;37033;49.994;21.992;2023-01-29T02:42:14;100041.02;;;-1.72;87.90
50710;BME280;37033;49.994;21.992;2023-01-29T02:45:11;100041.48;;;-1.73;87.77
50710;BME280;37033;49.994;21.992;2023-01-29T02:48:03;100037.63;;;-1.74;87.88
50710;BME280;37033;49.994;21.992;2023-01-29T02:50:57;100035.80;;;-1.73;87.83
50710;BME280;37033;49.994;21.992;2023-01-29T02:53:56;100027.84;;;-1.74;87.92
50710;BME280;37033;49.994;21.992;2023-01-29T02:56:51;100026.83;;;-1.73;87.83
50710;BME280;37033;49.994;21.992;2023-01-29T02:59:45;100032.21;;;-1.73;87.86
50710;BME280;37033;49.994;21.992;2023-01-29T03:02:40;100037.34;;;-1.75;87.85
50710;BME280;37033;49.994;21.992;2023-01-29T03:05:38;100041.26;;;-1.75;88.00
50710;BME280;37033;49.994;21.992;2023-01-29T03:08:34;100039.27;;;-1.76;88.03
50710;BME280;37033;49.994;21.992;2023-01-29T03:11:34;100043.54;;;-1.79;88.03
50710;BME280;37033;49.994;21.992;2023-01-29T03:14:31;100047.28;;;-1.81;88.06
50710;BME280;37033;49.994;21.992;2023-01-29T03:17:52;100057.09;;;-1.83;88.20
50710;BME280;37033;49.994;21.992;2023-01-29T03:20:45;100057.48;;;-1.84;88.20
50710;BME280;37033;49.994;21.992;2023-01-29T03:23:37;100060.47;;;-1.83;88.24
50710;BME280;37033;49.994;21.992;2023-01-29T03:26:45;100063.65;;;-1.84;88.21
50710;BME280;37033;49.994;21.992;2023-01-29T03:29:54;100062.85;;;-1.86;88.32
50710;BME280;37033;49.994;21.992;2023-01-29T03:33:05;100060.59;;;-1.86;88.43
50710;BME280;37033;49.994;21.992;2023-01-29T03:35:59;100068.89;;;-1.88;88.36
50710;BME280;37033;49.994;21.992;2023-01-29T03:38:51;100067.38;;;-1.88;88.51
50710;BME280;37033;49.994;21.992;2023-01-29T03:41:45;100059.09;;;-1.89;88.51
50710;BME280;37033;49.994;21.992;2023-01-29T03:44:40;100053.02;;;-1.89;88.44
50710;BME280;37033;49.994;21.992;2023-01-29T03:47:43;100052.69;;;-1.89;88.48
50710;BME280;37033;49.994;21.992;2023-01-29T03:50:37;100055.10;;;-1.88;88.40
50710;BME280;37033;49.994;21.992;2023-01-29T03:53:35;100046.99;;;-1.89;88.46
50710;BME280;37033;49.994;21.992;2023-01-29T03:56:43;100046.48;;;-1.89;88.49
50710;BME280;37033;49.994;21.992;2023-01-29T03:59:39;100051.54;;;-1.90;88.58
50710;BME280;37033;49.994;21.992;2023-01-29T04:02:34;100053.50;;;-1.90;88.52
50710;BME280;37033;49.994;21.992;2023-01-29T04:05:32;100048.70;;;-1.90;88.57
50710;BME280;37033;49.994;21.992;2023-01-29T04:08:28;100046.89;;;-1.90;88.54
50710;BME280;37033;49.994;21.992;2023-01-29T04:11:21;100052.16;;;-1.89;88.58
50710;BME280;37033;49.994;21.992;2023-01-29T04:14:12;100044.07;;;-1.88;88.55
50710;BME280;37033;49.994;21.992;2023-01-29T04:17:06;100035.61;;;-1.89;88.71
50710;BME280;37033;49.994;21.992;2023-01-29T04:19:57;100031.52;;;-1.91;88.59
50710;BME280;37033;49.994;21.992;2023-01-29T04:22:49;100034.55;;;-1.91;88.56
50710;BME280;37033;49.994;21.992;2023-01-29T04:25:45;100036.95;;;-1.92;88.60
50710;BME280;37033;49.994;21.992;2023-01-29T04:28:48;100039.15;;;-1.92;88.56
50710;BME280;37033;49.994;21.992;2023-01-29T04:31:46;100042.09;;;-1.93;88.65
50710;BME280;37033;49.994;21.992;2023-01-29T04:34:49;100047.92;;;-1.93;88.69
50710;BME280;37033;49.994;21.992;2023-01-29T04:37:43;100053.27;;;-1.95;88.60
50710;BME280;37033;49.994;21.992;2023-01-29T04:40:47;100057.11;;;-1.96;88.59
50710;BME280;37033;49.994;21.992;2023-01-29T04:43:44;100054.13;;;-1.99;88.32
50710;BME280;37033;49.994;21.992;2023-01-29T04:46:45;100059.53;;;-1.99;88.25
50710;BME280;37033;49.994;21.992;2023-01-29T04:49:44;100051.19;;;-2.01;88.09
50710;BME280;37033;49.994;21.992;2023-01-29T04:52:41;100041.42;;;-2.03;88.00
50710;BME280;37033;49.994;21.992;2023-01-29T04:55:37;100033.25;;;-2.03;88.03
50710;BME280;37033;49.994;21.992;2023-01-29T04:58:32;100028.21;;;-2.04;87.94
50710;BME280;37033;49.994;21.992;2023-01-29T05:01:26;100031.28;;;-2.07;87.87
50710;BME280;37033;49.994;21.992;2023-01-29T05:04:21;100039.92;;;-2.08;87.81
50710;BME280;37033;49.994;21.992;2023-01-29T05:07:14;100040.39;;;-2.09;87.74
50710;BME280;37033;49.994;21.992;2023-01-29T05:10:10;100033.08;;;-2.09;87.69
50710;BME280;37033;49.994;21.992;2023-01-29T05:13:02;100024.02;;;-2.11;87.51
50710;BME280;37033;49.994;21.992;2023-01-29T05:15:57;100021.51;;;-2.12;87.36
50710;BME280;37033;49.994;21.992;2023-01-29T05:18:47;100020.38;;;-2.14;87.28
50710;BME280;37033;49.994;21.992;2023-01-29T05:21:38;100018.58;;;-2.15;87.27
50710;BME280;37033;49.994;21.992;2023-01-29T05:24:28;100017.15;;;-2.15;87.22
50710;BME280;37033;49.994;21.992;2023-01-29T05:27:21;100017.11;;;-2.15;87.16
50710;BME280;37033;49.994;21.992;2023-01-29T05:30:29;100014.94;;;-2.16;87.13
50710;BME280;37033;49.994;21.992;2023-01-29T05:33:21;100008.46;;;-2.17;87.17
50710;BME280;37033;49.994;21.992;2023-01-29T05:36:12;100007.82;;;-2.16;87.14
50710;BME280;37033;49.994;21.992;2023-01-29T05:39:01;100001.69;;;-2.15;87.15
50710;BME280;37033;49.994;21.992;2023-01-29T05:41:51;100001.36;;;-2.15;86.88
50710;BME280;37033;49.994;21.992;2023-01-29T05:44:41;100000.25;;;-2.16;86.67
50710;BME280;37033;49.994;21.992;2023-01-29T05:47:31;99998.81;;;-2.16;86.38
50710;BME280;37033;49.994;21.992;2023-01-29T05:50:20;100001.37;;;-2.17;85.99
50710;BME280;37033;49.994;21.992;2023-01-29T05:53:10;100009.24;;;-2.18;85.85
50710;BME280;37033;49.994;21.992;2023-01-29T05:56:01;100015.58;;;-2.17;85.84
50710;BME280;37033;49.994;21.992;2023-01-29T05:58:51;100024.16;;;-2.18;85.67
50710;BME280;37033;49.994;21.992;2023-01-29T06:01:41;100032.14;;;-2.18;85.46
50710;BME280;37033;49.994;21.992;2023-01-29T06:04:30;100032.05;;;-2.19;85.34
50710;BME280;37033;49.994;21.992;2023-01-29T06:07:20;100032.73;;;-2.19;85.38
50710;BME280;37033;49.994;21.992;2023-01-29T06:10:13;100038.99;;;-2.19;85.27
50710;BME280;37033;49.994;21.992;2023-01-29T06:13:03;100041.58;;;-2.20;85.22
50710;BME280;37033;49.994;21.992;2023-01-29T06:15:54;100044.23;;;-2.20;85.27
50710;BME280;37033;49.994;21.992;2023-01-29T06:18:43;100052.73;;;-2.20;85.22
50710;BME280;37033;49.994;21.992;2023-01-29T06:21:33;100054.02;;;-2.20;84.96
50710;BME280;37033;49.994;21.992;2023-01-29T06:24:23;100053.40;;;-2.22;84.81
50710;BME280;37033;49.994;21.992;2023-01-29T06:27:12;100057.02;;;-2.22;84.73
50710;BME280;37033;49.994;21.992;2023-01-29T06:30:02;100056.15;;;-2.22;84.63
50710;BME280;37033;49.994;21.992;2023-01-29T06:32:56;100056.30;;;-2.24;84.62
50710;BME280;37033;49.994;21.992;2023-01-29T06:35:48;100053.33;;;-2.25;84.31
50710;BME280;37033;49.994;21.992;2023-01-29T06:38:38;100058.27;;;-2.26;84.25
50710;BME280;37033;49.994;21.992;2023-01-29T06:41:28;100062.05;;;-2.26;84.35
50710;BME280;37033;49.994;21.992;2023-01-29T06:44:18;100066.78;;;-2.26;84.35
50710;BME280;37033;49.994;21.992;2023-01-29T06:47:07;100068.77;;;-2.26;84.03
50710;BME280;37033;49.994;21.992;2023-01-29T06:49:57;100075.94;;;-2.27;83.56
50710;BME280;37033;49.994;21.992;2023-01-29T06:52:46;100080.23;;;-2.29;82.82
50710;BME280;37033;49.994;21.992;2023-01-29T06:55:36;100080.44;;;-2.31;81.63
50710;BME280;37033;49.994;21.992;2023-01-29T06:58:26;100085.73;;;-2.35;80.84
50710;BME280;37033;49.994;21.992;2023-01-29T07:01:16;100083.33;;;-2.38;80.41
50710;BME280;37033;49.994;21.992;2023-01-29T07:04:05;100084.34;;;-2.39;80.05
50710;BME280;37033;49.994;21.992;2023-01-29T07:06:55;100078.91;;;-2.42;79.73
50710;BME280;37033;49.994;21.992;2023-01-29T07:09:44;100072.71;;;-2.44;79.45
50710;BME280;37033;49.994;21.992;2023-01-29T07:12:34;100071.70;;;-2.45;79.71
50710;BME280;37033;49.994;21.992;2023-01-29T07:15:24;100072.65;;;-2.45;79.42
50710;BME280;37033;49.994;21.992;2023-01-29T07:18:13;100075.83;;;-2.47;79.28
50710;BME280;37033;49.994;21.992;2023-01-29T07:21:06;100067.02;;;-2.48;78.98
50710;BME280;37033;49.994;21.992;2023-01-29T07:23:56;100072.38;;;-2.48;78.62
50710;BME280;37033;49.994;21.992;2023-01-29T07:26:45;100071.35;;;-2.50;78.68
50710;BME280;37033;49.994;21.992;2023-01-29T07:29:35;100063.08;;;-2.51;78.83
50710;BME280;37033;49.994;21.992;2023-01-29T07:32:24;100058.85;;;-2.51;78.97
50710;BME280;37033;49.994;21.992;2023-01-29T07:35:14;100060.77;;;-2.51;78.97
50710;BME280;37033;49.994;21.992;2023-01-29T07:38:04;100069.14;;;-2.51;78.95
50710;BME280;37033;49.994;21.992;2023-01-29T07:40:54;100067.58;;;-2.52;78.78
50710;BME280;37033;49.994;21.992;2023-01-29T07:43:44;100074.45;;;-2.53;78.99
50710;BME280;37033;49.994;21.992;2023-01-29T07:46:33;100078.98;;;-2.52;79.00
50710;BME280;37033;49.994;21.992;2023-01-29T07:49:23;100082.27;;;-2.53;78.67
50710;BME280;37033;49.994;21.992;2023-01-29T07:52:12;100083.70;;;-2.55;78.46
50710;BME280;37033;49.994;21.992;2023-01-29T07:55:02;100085.11;;;-2.57;78.55
50710;BME280;37033;49.994;21.992;2023-01-29T07:57:57;100087.20;;;-2.59;78.13
50710;BME280;37033;49.994;21.992;2023-01-29T08:00:47;100101.55;;;-2.61;78.17
50710;BME280;37033;49.994;21.992;2023-01-29T08:03:37;100103.10;;;-2.62;78.07
50710;BME280;37033;49.994;21.992;2023-01-29T08:06:26;100111.54;;;-2.63;78.08
50710;BME280;37033;49.994;21.992;2023-01-29T08:09:16;100114.79;;;-2.66;77.99
50710;BME280;37033;49.994;21.992;2023-01-29T08:12:08;100123.59;;;-2.67;77.84
50710;BME280;37033;49.994;21.992;2023-01-29T08:14:57;100120.15;;;-2.68;78.09
50710;BME280;37033;49.994;21.992;2023-01-29T08:17:47;100125.23;;;-2.70;78.23
50710;BME280;37033;49.994;21.992;2023-01-29T08:20:36;100132.54;;;-2.70;77.97
50710;BME280;37033;49.994;21.992;2023-01-29T08:23:26;100140.39;;;-2.70;78.16
50710;BME280;37033;49.994;21.992;2023-01-29T08:26:15;100138.79;;;-2.70;78.10
50710;BME280;37033;49.994;21.992;2023-01-29T08:29:05;100142.45;;;-2.71;77.32
50710;BME280;37033;49.994;21.992;2023-01-29T08:31:55;100149.65;;;-2.75;77.50
50710;BME280;37033;49.994;21.992;2023-01-29T08:34:44;100153.79;;;-2.75;77.54
50710;BME280;37033;49.994;21.992;2023-01-29T08:37:34;100159.70;;;-2.76;77.55
50710;BME280;37033;49.994;21.992;2023-01-29T08:40:23;100161.14;;;-2.76;77.44
50710;BME280;37033;49.994;21.992;2023-01-29T08:43:13;100162.25;;;-2.77;77.44
50710;BME280;37033;49.994;21.992;2023-01-29T08:46:04;100166.21;;;-2.78;77.35
50710;BME280;37033;49.994;21.992;2023-01-29T08:48:54;100170.54;;;-2.78;77.48
50710;BME280;37033;49.994;21.992;2023-01-29T08:51:43;100171.38;;;-2.80;76.98
50710;BME280;37033;49.994;21.992;2023-01-29T08:54:33;100172.09;;;-2.82;76.42
50710;BME280;37033;49.994;21.992;2023-01-29T08:57:22;100172.95;;;-2.83;76.31
50710;BME280;37033;49.994;21.992;2023-01-29T09:00:16;100176.28;;;-2.85;76.42
50710;BME280;37033;49.994;21.992;2023-01-29T09:03:06;100174.44;;;-2.86;75.41
50710;BME280;37033;49.994;21.992;2023-01-29T09:05:57;100175.69;;;-2.88;75.16
50710;BME280;37033;49.994;21.992;2023-01-29T09:08:46;100173.97;;;-2.89;74.98
50710;BME280;37033;49.994;21.992;2023-01-29T09:11:37;100166.87;;;-2.89;75.37
50710;BME280;37033;49.994;21.992;2023-01-29T09:14:27;100162.59;;;-2.87;75.10
50710;BME280;37033;49.994;21.992;2023-01-29T09:17:17;100166.77;;;-2.84;75.04
50710;BME280;37033;49.994;21.992;2023-01-29T09:20:09;100161.88;;;-2.80;75.10
50710;BME280;37033;49.994;21.992;2023-01-29T09:23:04;100167.60;;;-2.75;75.10
50710;BME280;37033;49.994;21.992;2023-01-29T09:25:54;100166.48;;;-2.68;75.07
50710;BME280;37033;49.994;21.992;2023-01-29T09:28:44;100162.66;;;-2.66;74.70
50710;BME280;37033;49.994;21.992;2023-01-29T09:31:34;100156.30;;;-2.64;74.77
50710;BME280;37033;49.994;21.992;2023-01-29T09:34:24;100154.23;;;-2.63;74.57
50710;BME280;37033;49.994;21.992;2023-01-29T09:37:13;100155.23;;;-2.62;74.37
50710;BME280;37033;49.994;21.992;2023-01-29T09:40:08;100150.49;;;-2.61;74.89
50710;BME280;37033;49.994;21.992;2023-01-29T09:43:08;100147.70;;;-2.55;75.28
50710;BME280;37033;49.994;21.992;2023-01-29T09:46:03;100148.98;;;-2.49;75.16
50710;BME280;37033;49.994;21.992;2023-01-29T09:48:59;100144.56;;;-2.48;75.29
50710;BME280;37033;49.994;21.992;2023-01-29T09:51:52;100140.64;;;-2.43;75.30
50710;BME280;37033;49.994;21.992;2023-01-29T09:54:52;100133.39;;;-2.42;75.06
50710;BME280;37033;49.994;21.992;2023-01-29T09:57:47;100122.43;;;-2.40;75.16
50710;BME280;37033;49.994;21.992;2023-01-29T10:00:42;100108.11;;;-2.37;75.51
50710;BME280;37033;49.994;21.992;2023-01-29T10:03:52;100105.55;;;-2.32;75.49
50710;BME280;37033;49.994;21.992;2023-01-29T10:06:56;100102.52;;;-2.27;75.55
50710;BME280;37033;49.994;21.992;2023-01-29T10:10:13;100098.84;;;-2.23;75.12
50710;BME280;37033;49.994;21.992;2023-01-29T10:13:18;100096.47;;;-2.20;74.57
50710;BME280;37033;49.994;21.992;2023-01-29T10:16:20;100092.75;;;-2.16;74.46
50710;BME280;37033;49.994;21.992;2023-01-29T10:19:31;100087.15;;;-2.12;74.51
50710;BME280;37033;49.994;21.992;2023-01-29T10:22:49;100085.63;;;-2.09;74.08
50710;BME280;37033;49.994;21.992;2023-01-29T10:25:45;100076.55;;;-2.08;73.86
50710;BME280;37033;49.994;21.992;2023-01-29T10:28:40;100075.47;;;-2.08;73.54
50710;BME280;37033;49.994;21.992;2023-01-29T10:31:34;100069.29;;;-2.10;73.56
50710;BME280;37033;49.994;21.992;2023-01-29T10:34:30;100064.98;;;-2.12;73.85
50710;BME280;37033;49.994;21.992;2023-01-29T10:37:27;100067.47;;;-2.12;73.99
50710;BME280;37033;49.994;21.992;2023-01-29T10:40:27;100066.15;;;-2.13;74.14
50710;BME280;37033;49.994;21.992;2023-01-29T10:43:23;100066.15;;;-2.15;73.59
50710;BME280;37033;49.994;21.992;2023-01-29T10:46:25;100062.94;;;-2.19;73.74
50710;BME280;37033;49.994;21.992;2023-01-29T10:49:34;100059.33;;;-2.18;73.99
50710;BME280;37033;49.994;21.992;2023-01-29T10:52:38;100042.52;;;-2.17;73.72
50710;BME280;37033;49.994;21.992;2023-01-29T10:55:40;100029.73;;;-2.17;73.28
50710;BME280;37033;49.994;21.992;2023-01-29T10:58:37;100024.13;;;-2.15;73.68
50710;BME280;37033;49.994;21.992;2023-01-29T11:01:29;100018.65;;;-2.12;73.31
50710;BME280;37033;49.994;21.992;2023-01-29T11:04:19;100005.02;;;-2.07;73.34
50710;BME280;37033;49.994;21.992;2023-01-29T11:07:08;100001.73;;;-2.02;73.05
50710;BME280;37033;49.994;21.992;2023-01-29T11:10:09;99996.71;;;-2.00;72.95
50710;BME280;37033;49.994;21.992;2023-01-29T11:13:03;99991.56;;;-1.94;73.16
50710;BME280;37033;49.994;21.992;2023-01-29T11:15:54;99980.14;;;-1.90;72.69
50710;BME280;37033;49.994;21.992;2023-01-29T11:18:55;99975.69;;;-1.86;72.56
50710;BME280;37033;49.994;21.992;2023-01-29T11:21:57;99967.13;;;-1.86;72.52
50710;BME280;37033;49.994;21.992;2023-01-29T11:25:08;99967.36;;;-1.81;72.89
50710;BME280;37033;49.994;21.992;2023-01-29T11:27:59;99969.08;;;-1.76;72.58
50710;BME280;37033;49.994;21.992;2023-01-29T11:30:50;99962.71;;;-1.73;72.84
50710;BME280;37033;49.994;21.992;2023-01-29T11:33:41;99957.29;;;-1.68;72.85
50710;BME280;37033;49.994;21.992;2023-01-29T11:36:33;99952.95;;;-1.66;72.74
50710;BME280;37033;49.994;21.992;2023-01-29T11:39:25;99950.55;;;-1.63;72.73
50710;BME280;37033;49.994;21.992;2023-01-29T11:42:20;99946.24;;;-1.61;73.03
50710;BME280;37033;49.994;21.992;2023-01-29T11:45:27;99941.82;;;-1.57;72.18
50710;BME280;37033;49.994;21.992;2023-01-29T11:48:21;99940.66;;;-1.60;72.36
50710;BME280;37033;49.994;21.992;2023-01-29T11:51:19;99929.59;;;-1.57;72.52
50710;BME280;37033;49.994;21.992;2023-01-29T11:54:16;99921.95;;;-1.54;72.71
50710;BME280;37033;49.994;21.992;2023-01-29T11:57:20;99921.80;;;-1.49;72.95
50710;BME280;37033;49.994;21.992;2023-01-29T12:00:19;99918.83;;;-1.44;73.00
50710;BME280;37033;49.994;21.992;2023-01-29T12:03:18;99915.64;;;-1.41;73.03
50710;BME280;37033;49.994;21.992;2023-01-29T12:06:16;99911.02;;;-1.38;72.80
50710;BME280;37033;49.994;21.992;2023-01-29T12:09:13;99904.53;;;-1.41;72.82
50710;BME280;37033;49.994;21.992;2023-01-29T12:12:21;99896.56;;;-1.40;73.01
50710;BME280;37033;49.994;21.992;2023-01-29T12:15:25;99895.77;;;-1.39;72.57
50710;BME280;37033;49.994;21.992;2023-01-29T12:18:20;99896.83;;;-1.43;71.89
50710;BME280;37033;49.994;21.992;2023-01-29T12:21:16;99890.87;;;-1.47;71.81
50710;BME280;37033;49.994;21.992;2023-01-29T12:24:14;99896.96;;;-1.50;71.75
50710;BME280;37033;49.994;21.992;2023-01-29T12:27:11;99898.98;;;-1.53;70.94
50710;BME280;37033;49.994;21.992;2023-01-29T12:30:10;99896.86;;;-1.57;70.99
50710;BME280;37033;49.994;21.992;2023-01-29T12:33:04;99895.79;;;-1.61;69.84
50710;BME280;37033;49.994;21.992;2023-01-29T12:36:04;99896.15;;;-1.65;69.85
50710;BME280;37033;49.994;21.992;2023-01-29T12:38:57;99891.98;;;-1.64;70.26
50710;BME280;37033;49.994;21.992;2023-01-29T12:41:51;99894.42;;;-1.62;70.44
50710;BME280;37033;49.994;21.992;2023-01-29T12:44:43;99895.33;;;-1.58;69.87
50710;BME280;37033;49.994;21.992;2023-01-29T12:47:38;99887.66;;;-1.58;69.88
50710;BME280;37033;49.994;21.992;2023-01-29T12:50:33;99886.05;;;-1.54;70.02
50710;BME280;37033;49.994;21.992;2023-01-29T12:53:27;99881.08;;;-1.52;70.20
50710;BME280;37033;49.994;21.992;2023-01-29T12:56:27;99881.45;;;-1.49;70.17
50710;BME280;37033;49.994;21.992;2023-01-29T12:59:23;99878.08;;;-1.47;69.63
50710;BME280;37033;49.994;21.992;2023-01-29T13:02:25;99875.39;;;-1.45;69.84
50710;BME280;37033;49.994;21.992;2023-01-29T13:05:23;99875.98;;;-1.42;69.76
50710;BME280;37033;49.994;21.992;2023-01-29T13:08:18;99874.94;;;-1.43;69.87
50710;BME280;37033;49.994;21.992;2023-01-29T13:11:14;99871.48;;;-1.40;69.96
50710;BME280;37033;49.994;21.992;2023-01-29T13:14:15;99869.77;;;-1.38;69.82
50710;BME280;37033;49.994;21.992;2023-01-29T13:17:11;99866.32;;;-1.40;69.34
50710;BME280;37033;49.994;21.992;2023-01-29T13:20:08;99866.66;;;-1.42;69.43
50710;BME280;37033;49.994;21.992;2023-01-29T13:23:05;99870.14;;;-1.46;68.54
50710;BME280;37033;49.994;21.992;2023-01-29T13:26:01;99877.25;;;-1.51;69.21
50710;BME280;37033;49.994;21.992;2023-01-29T13:28:51;99875.17;;;-1.52;69.11
50710;BME280;37033;49.994;21.992;2023-01-29T13:31:47;99876.95;;;-1.55;69.20
50710;BME280;37033;49.994;21.992;2023-01-29T13:34:44;99880.64;;;-1.57;68.93
50710;BME280;37033;49.994;21.992;2023-01-29T13:37:39;99877.88;;;-1.60;69.47
50710;BME280;37033;49.994;21.992;2023-01-29T13:40:31;99879.28;;;-1.60;69.40
50710;BME280;37033;49.994;21.992;2023-01-29T13:43:23;99876.77;;;-1.61;69.22
50710;BME280;37033;49.994;21.992;2023-01-29T13:46:15;99874.91;;;-1.66;69.41
50710;BME280;37033;49.994;21.992;2023-01-29T13:49:23;99872.01;;;-1.68;69.34
50710;BME280;37033;49.994;21.992;2023-01-29T13:52:34;99869.08;;;-1.71;69.65
50710;BME280;37033;49.994;21.992;2023-01-29T13:55:27;99874.40;;;-1.73;69.75
50710;BME280;37033;49.994;21.992;2023-01-29T13:58:55;99873.20;;;-1.75;69.59
50710;BME280;37033;49.994;21.992;2023-01-29T14:02:20;99865.29;;;-1.78;70.05
50710;BME280;37033;49.994;21.992;2023-01-29T14:05:38;99863.59;;;-1.81;70.15
50710;BME280;37033;49.994;21.992;2023-01-29T14:08:43;99864.55;;;-1.80;70.24
50710;BME280;37033;49.994;21.992;2023-01-29T14:11:41;99853.21;;;-1.80;70.53
50710;BME280;37033;49.994;21.992;2023-01-29T14:15:12;99850.32;;;-1.80;70.45
50710;BME280;37033;49.994;21.992;2023-01-29T14:18:15;99842.23;;;-1.79;70.51
50710;BME280;37033;49.994;21.992;2023-01-29T14:21:16;99834.13;;;-1.79;70.32
50710;BME280;37033;49.994;21.992;2023-01-29T14:24:17;99834.77;;;-1.80;70.69
50710;BME280;37033;49.994;21.992;2023-01-29T14:27:18;99837.19;;;-1.80;70.63
50710;BME280;37033;49.994;21.992;2023-01-29T14:30:17;99837.63;;;-1.82;70.77
50710;BME280;37033;49.994;21.992;2023-01-29T14:33:24;99835.54;;;-1.83;70.91
50710;BME280;37033;49.994;21.992;2023-01-29T14:36:16;99830.11;;;-1.82;70.88
50710;BME280;37033;49.994;21.992;2023-01-29T14:39:15;99829.23;;;-1.83;70.96
50710;BME280;37033;49.994;21.992;2023-01-29T14:42:17;99832.05;;;-1.85;71.05
50710;BME280;37033;49.994;21.992;2023-01-29T14:45:22;99842.74;;;-1.86;71.20
50710;BME280;37033;49.994;21.992;2023-01-29T14:51:24;99847.80;;;-1.90;71.19
50710;BME280;37033;49.994;21.992;2023-01-29T14:54:25;99848.64;;;-1.92;71.45
50710;BME280;37033;49.994;21.992;2023-01-29T14:57:18;99846.97;;;-1.91;71.54
50710;BME280;37033;49.994;21.992;2023-01-29T15:00:16;99847.30;;;-1.90;71.67
50710;BME280;37033;49.994;21.992;2023-01-29T15:03:25;99850.13;;;-1.90;71.63
50710;BME280;37033;49.994;21.992;2023-01-29T15:06:24;99849.86;;;-1.91;71.78
50710;BME280;37033;49.994;21.992;2023-01-29T15:09:19;99843.08;;;-1.93;71.64
50710;BME280;37033;49.994;21.992;2023-01-29T15:12:24;99841.16;;;-1.95;71.78